createdAt,value
2016-08-14T00:00:06.009Z,0.00
2016-08-14T00:01:06.375Z,0.00
2016-08-14T00:02:06.921Z,0.00
2016-08-14T00:03:07.403Z,0.00
2016-08-14T00:04:08.078Z,0.00
2016-08-14T00:05:08.323Z,0.00
2016-08-14T00:06:09.143Z,0.00
2016-08-14T00:07:10.112Z,0.00
2016-08-14T00:08:10.492Z,0.00
2016-08-14T00:09:10.723Z,0.00
2016-08-14T00:10:11.402Z,0.00
2016-08-14T00:11:11.786Z,0.00
2016-08-14T00:12:12.326Z,0.00
2016-08-14T00:13:12.686Z,0.00
2016-08-14T00:14:13.672Z,0.00
2016-08-14T00:15:13.757Z,0.00
2016-08-14T00:16:14.578Z,0.00
2016-08-14T00:17:15.240Z,0.00
2016-08-14T00:18:15.617Z,0.00
2016-08-14T00:19:16.154Z,0.00
2016-08-14T00:20:16.670Z,0.00
2016-08-14T00:21:16.903Z,0.00
2016-08-14T00:22:17.762Z,0.00
2016-08-14T00:23:17.809Z,0.00
2016-08-14T00:24:18.971Z,0.00
2016-08-14T00:25:19.168Z,0.00
2016-08-14T00:26:19.878Z,0.00
2016-08-14T00:27:20.405Z,0.00
2016-08-14T00:28:20.900Z,0.00
2016-08-14T00:29:21.311Z,0.00
2016-08-14T00:30:21.800Z,0.00
2016-08-14T00:31:22.345Z,0.00
2016-08-14T00:32:23.018Z,0.00
2016-08-14T00:33:23.237Z,0.00
2016-08-14T00:34:24.087Z,0.00
2016-08-14T00:35:24.454Z,0.00
2016-08-14T00:36:25.262Z,0.00
2016-08-14T00:37:25.493Z,0.00
2016-08-14T00:38:26.173Z,0.00
2016-08-14T00:39:26.404Z,0.00
2016-08-14T00:40:27.245Z,0.00
2016-08-14T00:41:27.626Z,0.00
2016-08-14T00:42:27.856Z,0.00
2016-08-14T00:43:28.393Z,0.00
2016-08-14T00:44:29.199Z,0.00
2016-08-14T00:45:29.603Z,0.00
2016-08-14T00:46:30.400Z,0.00
2016-08-14T00:47:33.636Z,0.00
2016-08-14T00:48:31.159Z,0.00
2016-08-14T00:49:31.856Z,0.00
2016-08-14T00:50:34.186Z,0.00
2016-08-14T00:51:32.732Z,0.00
2016-08-14T00:52:33.583Z,0.00
2016-08-14T00:53:33.854Z,0.00
2016-08-14T00:54:34.340Z,0.00
2016-08-14T00:55:34.989Z,0.00
2016-08-14T00:56:35.675Z,0.00
2016-08-14T00:57:36.064Z,0.00
2016-08-14T00:58:36.572Z,0.00
2016-08-14T00:59:37.121Z,0.00
2016-08-14T01:00:37.792Z,0.00
2016-08-14T01:01:38.039Z,0.00
2016-08-14T01:02:38.695Z,0.00
2016-08-14T01:03:39.416Z,0.00
2016-08-14T01:04:39.794Z,0.00
2016-08-14T01:05:40.284Z,0.00
2016-08-14T01:06:40.815Z,0.00
2016-08-14T01:07:41.064Z,0.00
2016-08-14T01:08:41.748Z,0.00
2016-08-14T01:09:42.427Z,0.00
2016-08-14T01:10:42.934Z,0.00
2016-08-14T01:11:43.445Z,0.00
2016-08-14T01:12:44.124Z,0.00
2016-08-14T01:13:44.372Z,0.00
2016-08-14T01:14:45.181Z,0.00
2016-08-14T01:15:45.727Z,0.00
2016-08-14T01:16:45.979Z,0.00
2016-08-14T01:17:46.615Z,0.00
2016-08-14T01:18:46.867Z,0.00
2016-08-14T01:19:47.516Z,0.00
2016-08-14T01:20:49.992Z,0.00
2016-08-14T01:21:48.891Z,0.00
2016-08-14T01:22:49.425Z,0.00
2016-08-14T01:23:49.935Z,0.00
2016-08-14T01:24:50.310Z,0.00
2016-08-14T01:25:50.827Z,0.00
2016-08-14T01:26:51.350Z,0.00
2016-08-14T01:27:52.026Z,0.00
2016-08-14T01:28:52.418Z,0.00
2016-08-14T01:29:52.953Z,0.00
2016-08-14T01:30:53.467Z,0.00
2016-08-14T01:31:54.016Z,0.00
2016-08-14T01:32:54.218Z,0.00
2016-08-14T01:33:55.204Z,0.00
2016-08-14T01:34:55.423Z,0.00
2016-08-14T01:35:56.268Z,0.00
2016-08-14T01:36:56.659Z,0.00
2016-08-14T01:37:57.214Z,0.00
2016-08-14T01:38:57.686Z,0.00
2016-08-14T01:39:58.236Z,0.00
2016-08-14T01:40:58.909Z,0.00
2016-08-14T01:41:59.126Z,0.00
2016-08-14T01:42:59.976Z,0.00
2016-08-14T01:44:00.178Z,0.00
2016-08-14T01:45:00.725Z,0.00
2016-08-14T01:46:01.428Z,0.00
2016-08-14T01:47:02.111Z,0.00
2016-08-14T01:48:02.298Z,0.00
2016-08-14T01:49:03.112Z,0.00
2016-08-14T01:50:03.513Z,0.00
2016-08-14T01:51:04.048Z,0.00
2016-08-14T01:52:04.579Z,0.00
2016-08-14T01:53:05.247Z,0.00
2016-08-14T01:54:05.455Z,0.00
2016-08-14T01:55:05.998Z,0.00
2016-08-14T01:56:06.545Z,0.00
2016-08-14T01:57:07.365Z,0.00
2016-08-14T01:58:07.871Z,0.00
2016-08-14T01:59:08.245Z,0.00
2016-08-14T02:00:08.768Z,0.00
2016-08-14T02:01:09.317Z,0.00
2016-08-14T02:02:09.691Z,0.00
2016-08-14T02:03:10.504Z,0.00
2016-08-14T02:04:10.585Z,0.00
2016-08-14T02:05:11.275Z,0.00
2016-08-14T02:06:11.959Z,0.00
2016-08-14T02:07:12.313Z,0.00
2016-08-14T02:08:14.932Z,0.00
2016-08-14T02:09:13.392Z,0.00
2016-08-14T02:10:13.892Z,0.00
2016-08-14T02:11:14.452Z,0.00
2016-08-14T02:12:15.262Z,0.00
2016-08-14T02:13:15.499Z,0.00
2016-08-14T02:14:16.193Z,0.00
2016-08-14T02:15:16.992Z,0.00
2016-08-14T02:16:17.066Z,0.00
2016-08-14T02:17:17.741Z,0.00
2016-08-14T02:18:18.417Z,0.00
2016-08-14T02:19:18.666Z,0.00
2016-08-14T02:20:19.376Z,0.00
2016-08-14T02:21:20.014Z,0.00
2016-08-14T02:22:20.246Z,0.00
2016-08-14T02:23:20.940Z,0.00
2016-08-14T02:24:21.133Z,0.00
2016-08-14T02:25:21.964Z,0.00
2016-08-14T02:26:22.362Z,0.00
2016-08-14T02:27:22.866Z,0.00
2016-08-14T02:28:23.693Z,0.00
2016-08-14T02:29:24.095Z,0.00
2016-08-14T02:30:24.895Z,0.00
2016-08-14T02:31:24.973Z,0.00
2016-08-14T02:32:25.818Z,0.00
2016-08-14T02:33:26.331Z,0.00
2016-08-14T02:34:26.733Z,0.00
2016-08-14T02:35:27.258Z,0.00
2016-08-14T02:36:27.912Z,0.00
2016-08-14T02:37:28.638Z,0.00
2016-08-14T02:38:29.109Z,0.00
2016-08-14T02:39:29.111Z,0.00
2016-08-14T02:40:31.062Z,0.00
2016-08-14T02:41:30.110Z,0.00
2016-08-14T02:42:30.915Z,0.00
2016-08-14T02:43:31.591Z,0.00
2016-08-14T02:44:31.970Z,0.00
2016-08-14T02:45:32.366Z,0.00
2016-08-14T02:46:32.898Z,0.00
2016-08-14T02:47:33.735Z,0.00
2016-08-14T02:48:33.962Z,0.00
2016-08-14T02:49:34.825Z,0.00
2016-08-14T02:50:35.149Z,0.00
2016-08-14T02:51:35.521Z,0.00
2016-08-14T02:52:36.227Z,0.00
2016-08-14T02:53:36.873Z,0.00
2016-08-14T02:54:37.397Z,0.00
2016-08-14T02:55:37.955Z,0.00
2016-08-14T02:56:38.331Z,0.00
2016-08-14T02:57:38.849Z,0.00
2016-08-14T02:58:39.209Z,0.00
2016-08-14T02:59:39.886Z,0.00
2016-08-14T03:00:40.262Z,0.00
2016-08-14T03:01:40.952Z,0.00
2016-08-14T03:02:41.459Z,0.00
2016-08-14T03:03:41.858Z,0.00
2016-08-14T03:04:42.668Z,0.00
2016-08-14T03:05:42.747Z,0.00
2016-08-14T03:06:43.571Z,0.00
2016-08-14T03:07:44.121Z,0.00
2016-08-14T03:08:44.623Z,0.00
2016-08-14T03:09:44.862Z,0.00
2016-08-14T03:10:45.997Z,0.00
2016-08-14T03:11:46.365Z,0.00
2016-08-14T03:12:48.080Z,0.00
2016-08-14T03:13:47.264Z,0.00
2016-08-14T03:14:47.952Z,0.00
2016-08-14T03:15:48.156Z,0.00
2016-08-14T03:16:49.156Z,0.00
2016-08-14T03:17:49.215Z,0.00
2016-08-14T03:18:50.031Z,0.00
2016-08-14T03:19:50.419Z,0.00
2016-08-14T03:20:50.666Z,0.00
2016-08-14T03:21:51.179Z,0.00
2016-08-14T03:22:52.022Z,0.00
2016-08-14T03:23:52.395Z,0.00
2016-08-14T03:24:52.909Z,0.00
2016-08-14T03:25:53.365Z,0.00
2016-08-14T03:26:53.967Z,0.00
2016-08-14T03:27:54.664Z,0.00
2016-08-14T03:28:55.318Z,0.00
2016-08-14T03:29:55.722Z,0.00
2016-08-14T03:30:55.940Z,0.00
2016-08-14T03:31:56.808Z,0.00
2016-08-14T03:32:57.286Z,0.00
2016-08-14T03:33:57.804Z,0.00
2016-08-14T03:34:58.477Z,0.00
2016-08-14T03:35:58.723Z,0.00
2016-08-14T03:36:59.407Z,0.00
2016-08-14T03:37:59.781Z,0.00
2016-08-14T03:39:00.305Z,0.00
2016-08-14T03:40:00.843Z,0.00
2016-08-14T03:41:01.935Z,0.00
2016-08-14T03:42:01.862Z,0.00
2016-08-14T03:43:02.559Z,0.00
2016-08-14T03:44:03.245Z,0.00
2016-08-14T03:45:03.592Z,0.00
2016-08-14T03:46:04.268Z,0.00
2016-08-14T03:47:04.656Z,0.00
2016-08-14T03:48:05.186Z,0.00
2016-08-14T03:49:06.020Z,0.00
2016-08-14T03:50:06.375Z,0.00
2016-08-14T03:51:06.595Z,0.00
2016-08-14T03:52:07.296Z,0.00
2016-08-14T03:53:07.524Z,0.00
2016-08-14T03:54:08.484Z,0.00
2016-08-14T03:55:09.034Z,0.00
2016-08-14T03:56:09.540Z,0.00
2016-08-14T03:57:09.939Z,0.00
2016-08-14T03:58:10.439Z,0.00
2016-08-14T03:59:10.825Z,0.00
2016-08-14T04:00:11.355Z,0.00
2016-08-14T04:01:12.650Z,0.00
2016-08-14T04:02:12.581Z,0.00
2016-08-14T04:03:13.258Z,0.00
2016-08-14T04:04:13.610Z,0.00
2016-08-14T04:05:14.442Z,0.00
2016-08-14T04:06:14.679Z,0.00
2016-08-14T04:07:15.215Z,0.00
2016-08-14T04:08:15.619Z,0.00
2016-08-14T04:09:16.108Z,0.00
2016-08-14T04:10:16.950Z,0.00
2016-08-14T04:11:17.472Z,0.00
2016-08-14T04:12:17.692Z,0.00
2016-08-14T04:13:18.232Z,0.00
2016-08-14T04:14:18.892Z,0.00
2016-08-14T04:15:19.281Z,0.00
2016-08-14T04:16:19.942Z,0.00
2016-08-14T04:17:20.476Z,0.00
2016-08-14T04:18:21.148Z,0.00
2016-08-14T04:19:21.526Z,0.00
2016-08-14T04:20:22.070Z,0.00
2016-08-14T04:21:22.726Z,0.00
2016-08-14T04:22:22.954Z,0.00
2016-08-14T04:23:23.802Z,0.00
2016-08-14T04:24:24.452Z,0.00
2016-08-14T04:25:24.383Z,0.00
2016-08-14T04:26:25.391Z,0.00
2016-08-14T04:27:25.764Z,1.00
2016-08-14T04:28:26.316Z,1.00
2016-08-14T04:29:26.951Z,1.00
2016-08-14T04:30:27.482Z,1.00
2016-08-14T04:31:27.696Z,1.00
2016-08-14T04:32:28.255Z,1.00
2016-08-14T04:33:28.760Z,1.00
2016-08-14T04:34:29.612Z,1.00
2016-08-14T04:35:29.823Z,1.00
2016-08-14T04:36:30.812Z,1.00
2016-08-14T04:37:31.032Z,1.00
2016-08-14T04:38:31.407Z,1.00
2016-08-14T04:39:32.232Z,1.00
2016-08-14T04:40:32.459Z,1.00
2016-08-14T04:41:33.150Z,1.00
2016-08-14T04:42:33.827Z,2.00
2016-08-14T04:43:34.071Z,2.00
2016-08-14T04:44:34.908Z,2.00
2016-08-14T04:45:35.423Z,2.00
2016-08-14T04:46:37.270Z,2.00
2016-08-14T04:47:36.743Z,2.00
2016-08-14T04:48:36.727Z,2.00
2016-08-14T04:49:37.212Z,2.00
2016-08-14T04:50:38.030Z,2.00
2016-08-14T04:51:38.262Z,3.00
2016-08-14T04:52:38.935Z,3.00
2016-08-14T04:53:39.625Z,3.00
2016-08-14T04:54:39.843Z,3.00
2016-08-14T04:55:40.823Z,3.00
2016-08-14T04:56:41.068Z,4.00
2016-08-14T04:57:41.592Z,4.00
2016-08-14T04:58:42.245Z,4.00
2016-08-14T04:59:42.625Z,4.00
2016-08-14T05:00:42.874Z,4.00
2016-08-14T05:01:43.552Z,4.00
2016-08-14T05:02:44.209Z,4.00
2016-08-14T05:03:44.738Z,4.00
2016-08-14T05:04:45.108Z,5.00
2016-08-14T05:05:45.947Z,5.00
2016-08-14T05:06:46.318Z,5.00
2016-08-14T05:07:46.680Z,5.00
2016-08-14T05:08:47.396Z,5.00
2016-08-14T05:09:47.925Z,5.00
2016-08-14T05:10:48.440Z,5.00
2016-08-14T05:11:48.995Z,6.00
2016-08-14T05:12:49.341Z,6.00
2016-08-14T05:13:50.036Z,6.00
2016-08-14T05:14:50.264Z,6.00
2016-08-14T05:15:51.538Z,6.00
2016-08-14T05:16:53.267Z,7.00
2016-08-14T05:17:52.443Z,7.00
2016-08-14T05:18:52.673Z,7.00
2016-08-14T05:19:53.483Z,7.00
2016-08-14T05:20:53.852Z,7.00
2016-08-14T05:21:54.273Z,7.00
2016-08-14T05:22:54.757Z,7.00
2016-08-14T05:23:55.428Z,8.00
2016-08-14T05:24:56.252Z,8.00
2016-08-14T05:25:56.184Z,8.00
2016-08-14T05:26:56.744Z,8.00
2016-08-14T05:27:57.394Z,8.00
2016-08-14T05:28:57.921Z,9.00
2016-08-14T05:29:58.491Z,10.00
2016-08-14T05:30:58.680Z,10.00
2016-08-14T05:31:59.642Z,10.00
2016-08-14T05:33:00.019Z,9.00
2016-08-14T05:34:00.395Z,10.00
2016-08-14T05:35:00.922Z,9.00
2016-08-14T05:36:01.754Z,9.00
2016-08-14T05:37:02.276Z,9.00
2016-08-14T05:38:02.664Z,8.00
2016-08-14T05:39:03.043Z,9.00
2016-08-14T05:40:03.856Z,9.00
2016-08-14T05:41:04.230Z,11.00
2016-08-14T05:42:04.913Z,12.00
2016-08-14T05:43:05.579Z,11.00
2016-08-14T05:44:05.839Z,12.00
2016-08-14T05:45:06.787Z,13.00
2016-08-14T05:46:06.765Z,12.00
2016-08-14T05:47:07.276Z,12.00
2016-08-14T05:48:08.120Z,11.00
2016-08-14T05:49:08.321Z,11.00
2016-08-14T05:50:08.847Z,13.00
2016-08-14T05:51:09.370Z,12.00
2016-08-14T05:52:10.039Z,11.00
2016-08-14T05:53:10.269Z,13.00
2016-08-14T05:54:11.111Z,12.00
2016-08-14T05:55:11.632Z,12.00
2016-08-14T05:56:12.015Z,13.00
2016-08-14T05:57:12.983Z,19.00
2016-08-14T05:58:13.359Z,18.00
2016-08-14T05:59:13.782Z,14.00
2016-08-14T06:00:14.392Z,16.00
2016-08-14T06:01:15.077Z,14.00
2016-08-14T06:02:15.006Z,13.00
2016-08-14T06:03:15.857Z,13.00
2016-08-14T06:04:16.499Z,14.00
2016-08-14T06:05:16.728Z,11.00
2016-08-14T06:06:17.561Z,10.00
2016-08-14T06:07:18.399Z,10.00
2016-08-14T06:08:18.469Z,11.00
2016-08-14T06:09:18.991Z,11.00
2016-08-14T06:10:19.818Z,10.00
2016-08-14T06:11:20.053Z,10.00
2016-08-14T06:12:20.559Z,8.00
2016-08-14T06:13:21.079Z,8.00
2016-08-14T06:14:21.906Z,8.00
2016-08-14T06:15:22.138Z,8.00
2016-08-14T06:16:22.803Z,8.00
2016-08-14T06:17:23.481Z,8.00
2016-08-14T06:18:23.853Z,8.00
2016-08-14T06:19:24.548Z,9.00
2016-08-14T06:20:24.653Z,10.00
2016-08-14T06:21:25.301Z,10.00
2016-08-14T06:22:25.824Z,10.00
2016-08-14T06:23:26.206Z,11.00
2016-08-14T06:24:26.904Z,11.00
2016-08-14T06:25:27.444Z,11.00
2016-08-14T06:26:27.636Z,11.00
2016-08-14T06:27:28.938Z,11.00
2016-08-14T06:28:28.874Z,11.00
2016-08-14T06:29:29.361Z,12.00
2016-08-14T06:30:30.048Z,11.00
2016-08-14T06:31:30.419Z,11.00
2016-08-14T06:32:31.089Z,11.00
2016-08-14T06:33:31.339Z,11.00
2016-08-14T06:34:31.840Z,11.00
2016-08-14T06:35:32.688Z,11.00
2016-08-14T06:36:33.069Z,12.00
2016-08-14T06:37:33.723Z,12.00
2016-08-14T06:38:34.552Z,12.00
2016-08-14T06:39:34.492Z,12.00
2016-08-14T06:40:35.456Z,11.00
2016-08-14T06:41:35.685Z,10.00
2016-08-14T06:42:36.528Z,9.00
2016-08-14T06:43:37.179Z,9.00
2016-08-14T06:44:37.109Z,8.00
2016-08-14T06:45:38.088Z,8.00
2016-08-14T06:46:38.328Z,8.00
2016-08-14T06:47:38.996Z,8.00
2016-08-14T06:48:39.670Z,8.00
2016-08-14T06:49:40.062Z,8.00
2016-08-14T06:50:40.565Z,8.00
2016-08-14T06:51:40.944Z,8.00
2016-08-14T06:52:41.781Z,8.00
2016-08-14T06:53:42.147Z,9.00
2016-08-14T06:54:42.549Z,9.00
2016-08-14T06:55:43.388Z,9.00
2016-08-14T06:56:43.898Z,10.00
2016-08-14T06:57:44.300Z,10.00
2016-08-14T06:58:44.968Z,10.00
2016-08-14T06:59:45.490Z,10.00
2016-08-14T07:00:46.172Z,10.00
2016-08-14T07:01:46.536Z,10.00
2016-08-14T07:02:47.085Z,10.00
2016-08-14T07:03:47.588Z,10.00
2016-08-14T07:04:47.805Z,10.00
2016-08-14T07:05:48.338Z,10.00
2016-08-14T07:06:48.898Z,10.00
2016-08-14T07:07:49.684Z,10.00
2016-08-14T07:08:50.376Z,10.00
2016-08-14T07:09:50.920Z,10.00
2016-08-14T07:10:52.181Z,10.00
2016-08-14T07:11:51.790Z,9.00
2016-08-14T07:12:52.051Z,10.00
2016-08-14T07:13:53.012Z,10.00
2016-08-14T07:14:53.373Z,10.00
2016-08-14T07:15:53.895Z,11.00
2016-08-14T07:16:54.573Z,11.00
2016-08-14T07:17:55.550Z,11.00
2016-08-14T07:18:55.027Z,12.00
2016-08-14T07:19:55.878Z,12.00
2016-08-14T07:20:56.383Z,13.00
2016-08-14T07:21:56.948Z,14.00
2016-08-14T07:22:57.592Z,15.00
2016-08-14T07:23:57.853Z,14.00
2016-08-14T07:24:58.489Z,14.00
2016-08-14T07:25:58.880Z,17.00
2016-08-14T07:26:59.542Z,14.00
2016-08-14T07:28:00.410Z,14.00
2016-08-14T07:29:00.625Z,13.00
2016-08-14T07:30:01.132Z,13.00
2016-08-14T07:31:01.653Z,11.00
2016-08-14T07:32:02.057Z,10.00
2016-08-14T07:33:02.880Z,10.00
2016-08-14T07:34:03.403Z,10.00
2016-08-14T07:35:03.646Z,11.00
2016-08-14T07:36:04.467Z,11.00
2016-08-14T07:37:04.672Z,10.00
2016-08-14T07:38:05.525Z,10.00
2016-08-14T07:39:05.777Z,9.00
2016-08-14T07:40:06.568Z,9.00
2016-08-14T07:41:06.937Z,9.00
2016-08-14T07:42:07.756Z,8.00
2016-08-14T07:43:07.984Z,8.00
2016-08-14T07:44:08.539Z,9.00
2016-08-14T07:45:09.199Z,9.00
2016-08-14T07:46:09.430Z,9.00
2016-08-14T07:47:10.107Z,10.00
2016-08-14T07:48:10.615Z,13.00
2016-08-14T07:49:11.148Z,16.00
2016-08-14T07:50:11.827Z,17.00
2016-08-14T07:51:12.221Z,18.00
2016-08-14T07:52:12.926Z,19.00
2016-08-14T07:53:12.972Z,21.00
2016-08-14T07:54:13.939Z,24.00
2016-08-14T07:55:14.475Z,26.00
2016-08-14T07:56:15.001Z,26.00
2016-08-14T07:57:15.692Z,23.00
2016-08-14T07:58:15.890Z,20.00
2016-08-14T07:59:16.433Z,20.00
2016-08-14T08:00:16.799Z,19.00
2016-08-14T08:01:17.633Z,19.00
2016-08-14T08:02:17.717Z,18.00
2016-08-14T08:03:18.677Z,19.00
2016-08-14T08:04:18.758Z,20.00
2016-08-14T08:05:19.735Z,21.00
2016-08-14T08:06:20.110Z,22.00
2016-08-14T08:07:20.349Z,23.00
2016-08-14T08:08:21.052Z,22.00
2016-08-14T08:09:21.396Z,18.00
2016-08-14T08:10:22.222Z,17.00
2016-08-14T08:11:22.931Z,16.00
2016-08-14T08:12:23.336Z,15.00
2016-08-14T08:13:23.682Z,13.00
2016-08-14T08:14:24.372Z,12.00
2016-08-14T08:15:24.741Z,12.00
2016-08-14T08:16:25.268Z,12.00
2016-08-14T08:17:25.938Z,12.00
2016-08-14T08:18:26.629Z,13.00
2016-08-14T08:19:26.847Z,13.00
2016-08-14T08:20:27.671Z,14.00
2016-08-14T08:21:27.925Z,15.00
2016-08-14T08:22:28.448Z,17.00
2016-08-14T08:23:29.122Z,19.00
2016-08-14T08:24:29.915Z,21.00
2016-08-14T08:25:30.290Z,21.00
2016-08-14T08:26:30.396Z,22.00
2016-08-14T08:27:31.067Z,23.00
2016-08-14T08:28:31.424Z,22.00
2016-08-14T08:29:32.404Z,22.00
2016-08-14T08:30:32.935Z,23.00
2016-08-14T08:31:33.323Z,25.00
2016-08-14T08:32:33.848Z,26.00
2016-08-14T08:33:34.215Z,27.00
2016-08-14T08:34:34.757Z,29.00
2016-08-14T08:35:35.712Z,29.00
2016-08-14T08:36:35.961Z,28.00
2016-08-14T08:37:36.487Z,25.00
2016-08-14T08:38:37.196Z,22.00
2016-08-14T08:39:37.821Z,20.00
2016-08-14T08:40:37.935Z,19.00
2016-08-14T08:41:38.724Z,17.00
2016-08-14T08:42:40.306Z,15.00
2016-08-14T08:43:39.336Z,13.00
2016-08-14T08:44:39.871Z,12.00
2016-08-14T08:45:40.710Z,13.00
2016-08-14T08:46:41.240Z,15.00
2016-08-14T08:47:41.488Z,18.00
2016-08-14T08:48:42.148Z,21.00
2016-08-14T08:49:42.838Z,24.00
2016-08-14T08:50:43.224Z,25.00
2016-08-14T08:51:43.880Z,24.00
2016-08-14T08:52:44.403Z,24.00
2016-08-14T08:53:44.931Z,26.00
2016-08-14T08:54:45.462Z,30.00
2016-08-14T08:55:45.853Z,30.00
2016-08-14T08:56:46.243Z,26.00
2016-08-14T08:57:47.184Z,24.00
2016-08-14T08:58:47.905Z,24.00
2016-08-14T08:59:48.281Z,26.00
2016-08-14T09:00:48.618Z,31.00
2016-08-14T09:01:49.149Z,33.00
2016-08-14T09:02:49.975Z,41.00
2016-08-14T09:03:50.229Z,30.00
2016-08-14T09:04:50.580Z,35.00
2016-08-14T09:05:51.405Z,40.00
2016-08-14T09:06:51.939Z,32.00
2016-08-14T09:07:52.178Z,48.00
2016-08-14T09:08:53.010Z,34.00
2016-08-14T09:09:53.530Z,47.00
2016-08-14T09:10:54.052Z,51.00
2016-08-14T09:11:54.461Z,45.00
2016-08-14T09:12:56.618Z,44.00
2016-08-14T09:13:55.628Z,44.00
2016-08-14T09:14:55.874Z,47.00
2016-08-14T09:15:56.389Z,42.00
2016-08-14T09:16:57.537Z,40.00
2016-08-14T09:17:58.054Z,30.00
2016-08-14T09:18:57.844Z,32.00
2016-08-14T09:19:58.943Z,34.00
2016-08-14T09:20:59.040Z,37.00
2016-08-14T09:21:59.729Z,34.00
2016-08-14T09:23:00.263Z,34.00
2016-08-14T09:24:00.463Z,32.00
2016-08-14T09:25:01.308Z,35.00
2016-08-14T09:26:02.302Z,34.00
2016-08-14T09:27:02.245Z,31.00
2016-08-14T09:28:02.907Z,33.00
2016-08-14T09:29:03.282Z,40.00
2016-08-14T09:30:04.101Z,44.00
2016-08-14T09:31:04.325Z,47.00
2016-08-14T09:32:05.287Z,33.00
2016-08-14T09:33:05.358Z,37.00
2016-08-14T09:34:06.033Z,34.00
2016-08-14T09:35:06.885Z,32.00
2016-08-14T09:36:07.276Z,31.00
2016-08-14T09:37:07.643Z,31.00
2016-08-14T09:38:08.138Z,30.00
2016-08-14T09:39:08.838Z,34.00
2016-08-14T09:40:09.517Z,40.00
2016-08-14T09:41:10.031Z,43.00
2016-08-14T09:42:10.132Z,45.00
2016-08-14T09:43:10.631Z,45.00
2016-08-14T09:44:11.180Z,33.00
2016-08-14T09:45:12.010Z,53.00
2016-08-14T09:46:12.093Z,57.00
2016-08-14T09:47:13.037Z,58.00
2016-08-14T09:48:13.417Z,54.00
2016-08-14T09:49:13.801Z,52.00
2016-08-14T09:50:14.617Z,57.00
2016-08-14T09:51:15.167Z,52.00
2016-08-14T09:52:15.710Z,45.00
2016-08-14T09:53:16.352Z,38.00
2016-08-14T09:54:16.727Z,30.00
2016-08-14T09:55:16.987Z,36.00
2016-08-14T09:56:17.661Z,27.00
2016-08-14T09:57:18.028Z,24.00
2016-08-14T09:58:18.563Z,24.00
2016-08-14T09:59:19.101Z,24.00
2016-08-14T10:00:21.592Z,29.00
2016-08-14T10:01:20.287Z,25.00
2016-08-14T10:02:20.665Z,25.00
2016-08-14T10:03:21.519Z,24.00
2016-08-14T10:04:21.883Z,25.00
2016-08-14T10:05:22.721Z,25.00
2016-08-14T10:06:23.088Z,25.00
2016-08-14T10:07:23.460Z,26.00
2016-08-14T10:08:23.869Z,26.00
2016-08-14T10:09:24.688Z,28.00
2016-08-14T10:10:24.902Z,29.00
2016-08-14T10:11:25.424Z,32.00
2016-08-14T10:12:26.241Z,40.00
2016-08-14T10:13:26.490Z,34.00
2016-08-14T10:14:27.031Z,35.00
2016-08-14T10:15:27.999Z,34.00
2016-08-14T10:16:30.030Z,34.00
2016-08-14T10:17:28.906Z,35.00
2016-08-14T10:18:29.405Z,43.00
2016-08-14T10:19:29.784Z,35.00
2016-08-14T10:20:30.474Z,37.00
2016-08-14T10:21:30.992Z,45.00
2016-08-14T10:22:31.212Z,30.00
2016-08-14T10:23:31.744Z,31.00
2016-08-14T10:24:32.136Z,35.00
2016-08-14T10:25:33.116Z,34.00
2016-08-14T10:26:33.356Z,35.00
2016-08-14T10:27:33.882Z,36.00
2016-08-14T10:28:34.679Z,41.00
2016-08-14T10:29:35.081Z,39.00
2016-08-14T10:30:36.035Z,40.00
2016-08-14T10:31:36.117Z,36.00
2016-08-14T10:32:36.461Z,36.00
2016-08-14T10:33:37.214Z,34.00
2016-08-14T10:34:37.744Z,31.00
2016-08-14T10:35:38.105Z,30.00
2016-08-14T10:36:38.927Z,30.00
2016-08-14T10:37:39.331Z,30.00
2016-08-14T10:38:39.677Z,30.00
2016-08-14T10:39:40.367Z,31.00
2016-08-14T10:40:41.026Z,32.00
2016-08-14T10:41:41.415Z,32.00
2016-08-14T10:42:42.087Z,33.00
2016-08-14T10:43:42.613Z,33.00
2016-08-14T10:44:43.012Z,46.00
2016-08-14T10:45:43.699Z,36.00
2016-08-14T10:46:43.769Z,33.00
2016-08-14T10:47:44.429Z,48.00
2016-08-14T10:48:45.123Z,40.00
2016-08-14T10:49:45.774Z,36.00
2016-08-14T10:50:46.161Z,37.00
2016-08-14T10:51:46.683Z,37.00
2016-08-14T10:52:47.209Z,41.00
2016-08-14T10:53:47.902Z,41.00
2016-08-14T10:54:48.135Z,36.00
2016-08-14T10:55:48.798Z,33.00
2016-08-14T10:56:49.466Z,48.00
2016-08-14T10:57:49.694Z,45.00
2016-08-14T10:58:50.559Z,50.00
2016-08-14T10:59:51.514Z,50.00
2016-08-14T11:00:51.269Z,58.00
2016-08-14T11:01:51.957Z,48.00
2016-08-14T11:02:52.493Z,49.00
2016-08-14T11:03:54.056Z,52.00
2016-08-14T11:04:53.698Z,56.00
2016-08-14T11:05:53.765Z,56.00
2016-08-14T11:06:54.736Z,42.00
2016-08-14T11:07:54.991Z,56.00
2016-08-14T11:08:55.661Z,65.00
2016-08-14T11:09:56.480Z,44.00
2016-08-14T11:10:56.713Z,30.00
2016-08-14T11:11:57.264Z,44.00
2016-08-14T11:12:57.652Z,50.00
2016-08-14T11:13:58.595Z,55.00
2016-08-14T11:14:59.016Z,50.00
2016-08-14T11:15:59.651Z,74.00
2016-08-14T11:16:59.876Z,51.00
2016-08-14T11:18:00.107Z,41.00
2016-08-14T11:19:01.088Z,39.00
2016-08-14T11:20:01.349Z,38.00
2016-08-14T11:21:02.299Z,38.00
2016-08-14T11:22:02.223Z,38.00
2016-08-14T11:23:02.933Z,43.00
2016-08-14T11:24:03.584Z,70.00
2016-08-14T11:25:03.805Z,47.00
2016-08-14T11:26:04.799Z,69.00
2016-08-14T11:27:05.311Z,43.00
2016-08-14T11:28:05.682Z,45.00
2016-08-14T11:29:06.202Z,55.00
2016-08-14T11:30:06.455Z,56.00
2016-08-14T11:31:07.432Z,58.00
2016-08-14T11:32:07.799Z,84.00
2016-08-14T11:33:08.168Z,76.00
2016-08-14T11:34:09.170Z,60.00
2016-08-14T11:35:09.558Z,56.00
2016-08-14T11:36:10.043Z,43.00
2016-08-14T11:37:10.738Z,42.00
2016-08-14T11:38:10.943Z,47.00
2016-08-14T11:39:11.496Z,44.00
2016-08-14T11:40:12.155Z,45.00
2016-08-14T11:41:12.372Z,72.00
2016-08-14T11:42:12.928Z,55.00
2016-08-14T11:43:13.755Z,85.00
2016-08-14T11:44:14.141Z,66.00
2016-08-14T11:45:14.518Z,90.00
2016-08-14T11:46:15.030Z,87.00
2016-08-14T11:47:15.856Z,75.00
2016-08-14T11:48:16.445Z,69.00
2016-08-14T11:49:16.521Z,49.00
2016-08-14T11:50:17.156Z,46.00
2016-08-14T11:51:17.821Z,55.00
2016-08-14T11:52:18.368Z,72.00
2016-08-14T11:53:18.893Z,69.00
2016-08-14T11:54:19.406Z,62.00
2016-08-14T11:55:19.949Z,57.00
2016-08-14T11:56:20.454Z,89.00
2016-08-14T11:57:20.835Z,47.00
2016-08-14T11:58:21.391Z,45.00
2016-08-14T11:59:21.887Z,48.00
2016-08-14T12:00:22.884Z,52.00
2016-08-14T12:01:23.409Z,44.00
2016-08-14T12:02:23.771Z,40.00
2016-08-14T12:03:24.017Z,53.00
2016-08-14T12:04:24.820Z,54.00
2016-08-14T12:05:25.204Z,45.00
2016-08-14T12:06:25.899Z,45.00
2016-08-14T12:07:26.566Z,54.00
2016-08-14T12:08:26.772Z,48.00
2016-08-14T12:09:27.169Z,55.00
2016-08-14T12:10:28.127Z,56.00
2016-08-14T12:11:28.060Z,54.00
2016-08-14T12:12:28.922Z,39.00
2016-08-14T12:13:29.263Z,38.00
2016-08-14T12:14:29.940Z,36.00
2016-08-14T12:15:30.318Z,36.00
2016-08-14T12:16:30.998Z,38.00
2016-08-14T12:17:31.680Z,67.00
2016-08-14T12:18:31.919Z,36.00
2016-08-14T12:19:32.754Z,46.00
2016-08-14T12:20:32.829Z,40.00
2016-08-14T12:21:33.668Z,38.00
2016-08-14T12:22:33.890Z,40.00
2016-08-14T12:23:34.538Z,66.00
2016-08-14T12:24:35.378Z,42.00
2016-08-14T12:25:35.935Z,42.00
2016-08-14T12:26:36.277Z,47.00
2016-08-14T12:27:36.663Z,43.00
2016-08-14T12:28:37.184Z,80.00
2016-08-14T12:29:38.005Z,73.00
2016-08-14T12:30:38.384Z,81.00
2016-08-14T12:31:39.218Z,86.00
2016-08-14T12:32:39.320Z,74.00
2016-08-14T12:33:39.840Z,68.00
2016-08-14T12:34:40.819Z,76.00
2016-08-14T12:35:40.896Z,45.00
2016-08-14T12:36:41.263Z,88.00
2016-08-14T12:37:42.228Z,74.00
2016-08-14T12:38:42.781Z,46.00
2016-08-14T12:39:43.289Z,69.00
2016-08-14T12:40:44.140Z,85.00
2016-08-14T12:41:44.196Z,85.00
2016-08-14T12:42:44.870Z,61.00
2016-08-14T12:43:45.718Z,87.00
2016-08-14T12:44:45.776Z,83.00
2016-08-14T12:45:46.464Z,47.00
2016-08-14T12:46:46.680Z,48.00
2016-08-14T12:47:47.210Z,42.00
2016-08-14T12:48:47.743Z,58.00
2016-08-14T12:49:48.308Z,72.00
2016-08-14T12:50:48.950Z,39.00
2016-08-14T12:51:49.470Z,34.00
2016-08-14T12:52:50.006Z,33.00
2016-08-14T12:53:50.677Z,45.00
2016-08-14T12:54:50.918Z,38.00
2016-08-14T12:55:51.450Z,88.00
2016-08-14T12:56:51.832Z,41.00
2016-08-14T12:57:52.670Z,42.00
2016-08-14T12:58:53.041Z,39.00
2016-08-14T12:59:53.545Z,34.00
2016-08-14T13:00:54.221Z,33.00
2016-08-14T13:01:54.750Z,33.00
2016-08-14T13:02:55.276Z,77.00
2016-08-14T13:03:55.962Z,30.00
2016-08-14T13:04:56.040Z,29.00
2016-08-14T13:05:56.889Z,28.00
2016-08-14T13:06:57.398Z,28.00
2016-08-14T13:07:57.912Z,27.00
2016-08-14T13:08:58.600Z,27.00
2016-08-14T13:09:59.110Z,25.00
2016-08-14T13:10:59.649Z,24.00